createdAt,value
2018-05-08T00:01:23.428Z,13.50
2018-05-08T00:03:54.301Z,13.00
2018-05-08T00:06:24.425Z,12.75
2018-05-08T00:08:55.578Z,13.50
2018-05-08T00:11:25.992Z,11.50
2018-05-08T00:13:56.332Z,11.00
2018-05-08T00:16:27.140Z,13.00
2018-05-08T00:18:57.654Z,13.75
2018-05-08T00:21:27.780Z,10.00
2018-05-08T00:23:57.978Z,10.00
2018-05-08T00:26:29.651Z,12.25
2018-05-08T00:29:00.007Z,12.00
2018-05-08T00:31:30.693Z,12.25
2018-05-08T00:34:00.858Z,14.00
2018-05-08T00:36:31.098Z,11.75
2018-05-08T00:39:01.361Z,14.00
2018-05-08T00:41:32.613Z,12.75
2018-05-08T00:44:03.035Z,14.00
2018-05-08T00:46:35.347Z,11.00
2018-05-08T00:49:05.582Z,13.00
2018-05-08T00:51:36.696Z,11.75
2018-05-08T00:54:07.016Z,13.00
2018-05-08T00:56:37.132Z,12.00
2018-05-08T00:59:08.246Z,13.00
2018-05-08T01:01:38.890Z,13.75
2018-05-08T01:04:09.430Z,15.00
2018-05-08T01:06:40.099Z,15.75
2018-05-08T01:09:10.592Z,14.00
2018-05-08T01:11:41.102Z,14.75
2018-05-08T01:14:11.148Z,17.25
2018-05-08T01:16:42.586Z,15.00
2018-05-08T01:19:12.945Z,12.00
2018-05-08T01:21:43.118Z,12.00
2018-05-08T01:24:14.080Z,13.00
2018-05-08T01:26:44.736Z,12.75
2018-05-08T01:29:16.297Z,11.25
2018-05-08T01:31:47.988Z,12.00
2018-05-08T01:34:18.772Z,14.25
2018-05-08T01:36:48.904Z,12.00
2018-05-08T01:39:21.223Z,13.00
2018-05-08T01:41:52.013Z,14.25
2018-05-08T01:44:23.896Z,13.00
2018-05-08T01:46:54.955Z,13.75
2018-05-08T01:49:37.911Z,13.75
2018-05-08T01:52:10.100Z,14.00
2018-05-08T01:54:42.652Z,13.50
2018-05-08T01:57:13.142Z,14.25
2018-05-08T01:59:47.696Z,14.50
2018-05-08T02:02:19.571Z,16.75
2018-05-08T02:04:50.753Z,17.75
2018-05-08T02:07:23.553Z,13.00
2018-05-08T02:09:54.162Z,19.00
2018-05-08T02:12:25.196Z,20.25
2018-05-08T02:14:55.843Z,14.50
2018-05-08T02:17:26.196Z,15.50
2018-05-08T02:19:56.483Z,16.50
2018-05-08T02:22:27.019Z,15.50
2018-05-08T02:24:57.283Z,12.25
2018-05-08T02:27:29.331Z,16.25
2018-05-08T02:29:59.579Z,14.00
2018-05-08T02:32:30.623Z,15.50
2018-05-08T02:35:01.678Z,13.75
2018-05-08T02:37:32.666Z,16.25
2018-05-08T02:40:06.388Z,17.00
2018-05-08T02:42:36.995Z,15.25
2018-05-08T02:45:07.699Z,15.25
2018-05-08T02:47:38.333Z,15.25
2018-05-08T02:50:08.601Z,15.25
2018-05-08T02:52:39.139Z,15.00
2018-05-08T02:55:10.602Z,16.00
2018-05-08T02:57:41.070Z,15.50
2018-05-08T03:00:14.648Z,15.50
2018-05-08T03:02:45.145Z,14.00
2018-05-08T03:05:16.339Z,14.75
2018-05-08T03:07:46.906Z,15.25
2018-05-08T03:10:17.381Z,15.25
2018-05-08T03:12:48.047Z,19.00
2018-05-08T03:15:19.754Z,14.00
2018-05-08T03:17:56.296Z,18.50
2018-05-08T03:20:30.536Z,15.00
2018-05-08T03:23:02.016Z,14.00
2018-05-08T03:25:34.660Z,18.50
2018-05-08T03:28:04.908Z,15.25
2018-05-08T03:30:36.162Z,14.75
2018-05-08T03:33:06.501Z,15.00
2018-05-08T03:35:43.431Z,14.50
2018-05-08T03:38:14.172Z,16.25
2018-05-08T03:40:44.522Z,14.25
2018-05-08T03:43:15.485Z,16.00
2018-05-08T03:45:50.278Z,14.50
2018-05-08T03:48:23.587Z,14.75
2018-05-08T03:50:53.984Z,15.75
2018-05-08T03:53:24.499Z,14.50
2018-05-08T03:55:54.820Z,15.25
2018-05-08T03:58:25.191Z,15.00
2018-05-08T04:02:09.399Z,16.00
2018-05-08T04:06:55.862Z,17.00
2018-05-08T04:09:26.169Z,18.00
2018-05-08T04:11:56.334Z,16.25
2018-05-08T04:14:26.704Z,16.00
2018-05-08T04:16:57.515Z,17.00
2018-05-08T04:19:28.152Z,16.50
2018-05-08T04:21:58.853Z,14.50
2018-05-08T04:24:30.095Z,20.25
2018-05-08T04:27:00.634Z,19.00
2018-05-08T04:29:31.457Z,16.75
2018-05-08T04:32:02.077Z,17.75
2018-05-08T04:34:32.665Z,18.75
2018-05-08T04:39:53.179Z,18.50
2018-05-08T04:42:24.008Z,19.75
2018-05-08T04:44:56.744Z,23.50
2018-05-08T04:47:32.260Z,23.75
2018-05-08T04:50:03.683Z,20.75
2018-05-08T04:52:34.205Z,19.50
2018-05-08T04:55:04.396Z,20.00
2018-05-08T04:57:34.740Z,23.50
2018-05-08T05:00:08.693Z,20.00
2018-05-08T05:02:41.434Z,18.75
2018-05-08T05:05:11.750Z,20.50
2018-05-08T05:07:43.469Z,19.25
2018-05-08T05:10:13.961Z,20.25
2018-05-08T05:12:44.581Z,19.50
2018-05-08T05:15:17.727Z,22.00
2018-05-08T05:17:48.219Z,18.25
2018-05-08T05:20:18.426Z,22.00
2018-05-08T05:22:49.255Z,20.25
2018-05-08T05:25:19.564Z,21.75
2018-05-08T05:27:57.290Z,22.25
2018-05-08T05:30:28.349Z,19.75
2018-05-08T05:33:02.593Z,22.50
2018-05-08T05:35:33.825Z,18.75
2018-05-08T05:38:04.085Z,18.25
2018-05-08T05:40:38.500Z,21.50
2018-05-08T05:43:10.298Z,18.75
2018-05-08T05:45:41.062Z,21.00
2018-05-08T05:48:11.868Z,20.00
2018-05-08T05:50:42.660Z,19.50
2018-05-08T05:53:13.245Z,18.50
2018-05-08T05:55:50.315Z,18.75
2018-05-08T05:58:22.495Z,15.50
2018-05-08T06:00:55.494Z,13.25
2018-05-08T06:03:26.003Z,14.00
2018-05-08T06:05:56.672Z,14.00
2018-05-08T06:08:57.247Z,11.25
2018-05-08T06:11:44.607Z,9.75
2018-05-08T06:16:56.292Z,11.00
2018-05-08T06:19:27.541Z,11.50
2018-05-08T06:22:00.882Z,12.75
2018-05-08T06:24:33.109Z,13.25
2018-05-08T06:27:04.482Z,12.00
2018-05-08T06:29:35.479Z,11.00
2018-05-08T06:32:05.855Z,10.25
2018-05-08T06:34:42.980Z,12.00
2018-05-08T06:37:37.188Z,10.75
2018-05-08T06:40:33.706Z,11.50
2018-05-08T06:43:07.459Z,11.25
2018-05-08T06:45:40.527Z,13.00
2018-05-08T06:48:11.286Z,11.50
2018-05-08T06:50:42.379Z,11.50
2018-05-08T06:53:13.355Z,10.50
2018-05-08T06:55:43.451Z,9.25
2018-05-08T06:58:16.300Z,10.75
2018-05-08T07:00:47.474Z,11.00
2018-05-08T07:03:17.791Z,11.00
2018-05-08T07:05:48.134Z,9.00
2018-05-08T07:08:18.504Z,12.50
2018-05-08T07:10:50.558Z,10.00
2018-05-08T07:13:21.268Z,10.00
2018-05-08T07:15:52.412Z,9.25
2018-05-08T07:18:23.701Z,12.00
2018-05-08T07:20:59.748Z,11.50
2018-05-08T07:23:30.236Z,11.50
2018-05-08T07:26:00.538Z,10.00
2018-05-08T07:28:30.885Z,8.50
2018-05-08T07:31:03.884Z,11.25
2018-05-08T07:33:35.667Z,10.75
2018-05-08T07:36:24.434Z,11.25
2018-05-08T07:38:54.945Z,9.75
2018-05-08T07:41:26.268Z,10.75
2018-05-08T07:43:56.759Z,12.75
2018-05-08T07:46:31.367Z,11.25
2018-05-08T07:49:03.405Z,11.50
2018-05-08T07:51:35.789Z,9.50
2018-05-08T07:54:14.773Z,11.50
2018-05-08T07:56:47.953Z,10.50
2018-05-08T07:59:20.992Z,10.50
2018-05-08T08:01:51.923Z,9.00
2018-05-08T08:04:22.266Z,8.50
2018-05-08T08:06:53.082Z,9.00
2018-05-08T08:09:25.273Z,9.75
2018-05-08T08:11:55.743Z,8.25
2018-05-08T08:14:59.337Z,9.50
2018-05-08T08:17:32.671Z,9.00
2018-05-08T08:20:06.778Z,9.00
2018-05-08T08:22:37.687Z,10.25
2018-05-08T08:25:10.748Z,9.00
2018-05-08T08:27:41.387Z,8.00
2018-05-08T08:30:15.275Z,10.75
2018-05-08T08:32:47.689Z,9.00
2018-05-08T08:35:29.767Z,9.75
2018-05-08T08:38:02.731Z,8.50
2018-05-08T08:40:33.867Z,9.75
2018-05-08T08:43:04.641Z,8.75
2018-05-08T08:45:36.718Z,9.00
2018-05-08T08:48:07.486Z,10.00
2018-05-08T08:50:38.513Z,9.75
2018-05-08T08:53:13.026Z,9.00
2018-05-08T08:55:44.566Z,9.00
2018-05-08T08:58:17.102Z,9.00
2018-05-08T09:00:51.077Z,9.00
2018-05-08T09:03:23.526Z,7.75
2018-05-08T09:05:54.017Z,9.00
2018-05-08T09:08:26.066Z,9.50
2018-05-08T09:10:59.657Z,8.00
2018-05-08T09:13:33.545Z,8.00
2018-05-08T09:16:26.810Z,8.75
2018-05-08T09:19:15.354Z,9.75
2018-05-08T09:21:52.197Z,7.00
2018-05-08T09:24:28.849Z,9.00
2018-05-08T09:27:14.079Z,9.25
2018-05-08T09:29:47.792Z,9.50
2018-05-08T09:32:24.785Z,9.25
2018-05-08T09:38:03.202Z,9.00
2018-05-08T09:40:35.498Z,9.75
2018-05-08T09:43:11.343Z,7.50
2018-05-08T09:45:42.335Z,10.00
2018-05-08T09:48:18.465Z,8.75
2018-05-08T09:50:51.337Z,10.00
2018-05-08T09:53:25.478Z,8.25
2018-05-08T09:55:59.668Z,9.75
2018-05-08T09:58:31.851Z,9.00
2018-05-08T10:01:02.897Z,8.00
2018-05-08T10:03:33.463Z,9.00
2018-05-08T10:06:06.811Z,9.00
2018-05-08T10:08:37.171Z,8.00
2018-05-08T10:11:08.388Z,8.00
2018-05-08T10:13:39.427Z,8.25
2018-05-08T10:16:10.120Z,9.00
2018-05-08T10:18:43.072Z,8.50
2018-05-08T10:21:15.211Z,9.00
2018-05-08T10:23:49.128Z,7.00
2018-05-08T10:26:20.209Z,7.75
2018-05-08T10:28:50.998Z,11.00
2018-05-08T10:31:22.589Z,9.25
2018-05-08T10:33:54.142Z,8.00
2018-05-08T10:36:28.958Z,9.00
2018-05-08T10:39:00.205Z,7.50
2018-05-08T10:41:31.772Z,8.00
2018-05-08T10:44:02.259Z,7.50
2018-05-08T10:46:33.832Z,8.00
2018-05-08T10:49:08.337Z,7.00
2018-05-08T10:51:39.725Z,8.75
2018-05-08T10:54:10.380Z,9.00
2018-05-08T10:56:40.851Z,7.50
2018-05-08T10:59:13.437Z,6.25
2018-05-08T11:01:44.911Z,8.00
2018-05-08T11:04:17.752Z,6.25
2018-05-08T11:06:48.279Z,9.25
2018-05-08T11:09:21.326Z,7.00
2018-05-08T11:11:54.707Z,7.75
2018-05-08T11:14:29.091Z,10.00
2018-05-08T11:17:01.553Z,7.75
2018-05-08T11:19:34.352Z,7.25
2018-05-08T11:22:05.859Z,7.00
2018-05-08T11:27:20.267Z,6.00
2018-05-08T11:29:50.937Z,7.75
2018-05-08T11:32:22.014Z,7.25
2018-05-08T11:34:53.359Z,8.00
2018-05-08T11:37:23.932Z,8.00
2018-05-08T11:39:55.553Z,8.50
2018-05-08T11:42:27.234Z,8.75
2018-05-08T11:44:57.987Z,6.25
2018-05-08T11:47:35.119Z,6.00
2018-05-08T11:50:07.221Z,9.00
2018-05-08T11:52:37.908Z,8.75
2018-05-08T11:55:08.303Z,8.00
2018-05-08T11:57:46.718Z,6.50
2018-05-08T12:00:17.889Z,8.25
2018-05-08T12:02:51.908Z,7.75
2018-05-08T12:05:23.981Z,8.00
2018-05-08T12:07:54.543Z,9.50
2018-05-08T12:10:26.271Z,8.00
2018-05-08T12:12:57.442Z,8.00
2018-05-08T12:15:30.812Z,8.00
2018-05-08T12:18:04.595Z,7.00
2018-05-08T12:23:08.607Z,8.25
2018-05-08T12:25:39.066Z,8.25
2018-05-08T12:28:10.494Z,8.00
2018-05-08T12:30:41.916Z,10.50
2018-05-08T12:33:13.174Z,7.75
2018-05-08T12:35:43.642Z,7.00
2018-05-08T12:38:15.318Z,7.25
2018-05-08T12:40:45.940Z,8.00
2018-05-08T12:43:16.474Z,7.50
2018-05-08T12:45:47.089Z,8.00
2018-05-08T12:48:17.959Z,8.00
2018-05-08T12:50:48.876Z,7.50
2018-05-08T12:53:19.187Z,6.00
2018-05-08T12:55:49.710Z,6.50
2018-05-08T12:58:21.436Z,11.25
2018-05-08T13:00:52.597Z,8.25
2018-05-08T13:03:24.737Z,7.75
2018-05-08T13:05:55.486Z,7.75
2018-05-08T13:08:26.098Z,9.50
2018-05-08T13:10:57.549Z,8.75
2018-05-08T13:13:34.020Z,6.25
2018-05-08T13:16:06.863Z,7.75
2018-05-08T13:18:37.932Z,7.00
2018-05-08T13:21:10.979Z,6.00
2018-05-08T13:23:44.643Z,7.00
2018-05-08T13:26:16.594Z,6.75
2018-05-08T13:28:49.124Z,8.00
2018-05-08T13:31:25.553Z,6.00
2018-05-08T13:34:05.539Z,6.00
2018-05-08T13:36:44.884Z,8.00
2018-05-08T13:39:21.632Z,6.00
2018-05-08T13:41:53.665Z,6.50
2018-05-08T13:44:25.352Z,6.00
2018-05-08T13:46:57.843Z,7.50
2018-05-08T13:49:28.882Z,6.75
2018-05-08T13:51:59.402Z,7.75
2018-05-08T13:54:32.007Z,6.25
2018-05-08T13:57:03.133Z,6.50
2018-05-08T13:59:35.112Z,6.25
2018-05-08T14:02:07.389Z,7.25
2018-05-08T14:04:39.649Z,6.50
2018-05-08T14:07:12.887Z,7.00
2018-05-08T14:09:47.638Z,6.50
2018-05-08T14:12:19.935Z,7.00
2018-05-08T14:14:55.171Z,8.00
2018-05-08T14:17:27.632Z,7.50
2018-05-08T14:19:58.320Z,6.75
2018-05-08T14:22:29.930Z,7.00
2018-05-08T14:25:01.594Z,8.00
2018-05-08T14:27:37.444Z,7.00
2018-05-08T14:30:08.935Z,7.00
2018-05-08T14:32:39.565Z,6.00
2018-05-08T14:35:09.915Z,7.25
2018-05-08T14:37:40.445Z,7.25
2018-05-08T14:40:11.069Z,7.25
2018-05-08T14:42:41.951Z,7.50
2018-05-08T14:45:17.126Z,7.00
2018-05-08T14:47:48.184Z,8.00
2018-05-08T14:50:18.488Z,7.50
2018-05-08T14:52:50.799Z,8.00
2018-05-08T14:55:21.728Z,7.00
2018-05-08T14:57:55.116Z,7.50
2018-05-08T15:03:45.353Z,6.00
2018-05-08T15:06:17.652Z,7.75
2018-05-08T15:08:49.011Z,7.00
2018-05-08T15:11:21.209Z,8.00
2018-05-08T15:13:54.467Z,6.75
2018-05-08T15:16:27.013Z,8.00
2018-05-08T15:19:04.498Z,7.00
2018-05-08T15:26:59.833Z,9.00
2018-05-08T15:32:17.194Z,8.00
2018-05-08T15:34:50.932Z,8.00
2018-05-08T15:37:23.251Z,8.00
2018-05-08T15:39:53.843Z,8.75
2018-05-08T15:42:24.578Z,8.00
2018-05-08T15:44:55.314Z,7.50
2018-05-08T15:47:27.400Z,7.25
2018-05-08T15:49:57.851Z,7.75
2018-05-08T15:52:29.473Z,7.00
2018-05-08T15:55:02.054Z,7.75
2018-05-08T15:57:46.545Z,7.75
2018-05-08T16:00:19.036Z,7.25
2018-05-08T16:02:50.738Z,7.50
2018-05-08T16:05:27.887Z,6.00
2018-05-08T16:08:17.122Z,7.00
2018-05-08T16:11:03.191Z,7.00
2018-05-08T16:13:36.669Z,6.75
2018-05-08T16:16:09.336Z,7.50
2018-05-08T16:18:39.734Z,8.00
2018-05-08T16:21:13.133Z,7.00
2018-05-08T16:23:47.722Z,6.25
2018-05-08T16:26:19.191Z,7.00
2018-05-08T16:28:50.287Z,8.00
2018-05-08T16:31:21.006Z,8.25
2018-05-08T16:33:55.427Z,7.75
2018-05-08T16:36:34.101Z,6.00
2018-05-08T16:39:08.698Z,8.00
2018-05-08T16:41:40.925Z,13.25
2018-05-08T16:44:14.468Z,6.50
2018-05-08T16:46:52.203Z,7.00
2018-05-08T16:49:23.362Z,5.50
2018-05-08T16:51:54.846Z,6.00
2018-05-08T16:54:27.784Z,5.50
2018-05-08T16:56:59.810Z,6.75
2018-05-08T16:59:40.155Z,7.00
2018-05-08T17:02:15.066Z,7.00
2018-05-08T17:04:51.529Z,6.25
2018-05-08T17:07:35.062Z,9.50
2018-05-08T17:10:16.786Z,6.25
2018-05-08T17:12:50.034Z,8.25
2018-05-08T17:15:20.567Z,8.25
2018-05-08T17:17:52.482Z,6.00
2018-05-08T17:20:25.908Z,5.25
2018-05-08T17:22:57.852Z,5.00
2018-05-08T17:25:31.961Z,5.75
2018-05-08T17:28:03.120Z,6.50
2018-05-08T17:30:35.650Z,14.50
2018-05-08T17:33:08.732Z,6.00
2018-05-08T17:38:40.089Z,5.00
2018-05-08T17:41:13.124Z,5.50
2018-05-08T17:43:46.880Z,4.00
2018-05-08T17:46:19.155Z,5.00
2018-05-08T17:48:50.689Z,6.00
2018-05-08T17:51:24.722Z,10.50
2018-05-08T17:53:55.677Z,6.50
2018-05-08T17:56:28.667Z,5.00
2018-05-08T17:58:59.493Z,6.75
2018-05-08T18:01:31.910Z,5.75
2018-05-08T18:04:11.266Z,6.50
2018-05-08T18:06:44.664Z,7.50
2018-05-08T18:09:48.647Z,6.50
2018-05-08T18:12:21.401Z,8.25
2018-05-08T18:15:10.121Z,6.00
2018-05-08T18:17:42.889Z,6.50
2018-05-08T18:20:20.770Z,7.00
2018-05-08T18:22:56.051Z,9.25
2018-05-08T18:25:27.089Z,20.25
2018-05-08T18:27:58.204Z,8.00
2018-05-08T18:30:29.884Z,7.00
2018-05-08T18:33:05.460Z,9.50
2018-05-08T18:35:37.587Z,28.25
2018-05-08T18:38:11.691Z,12.50
2018-05-08T18:46:19.741Z,7.00
2018-05-08T18:49:11.046Z,7.00
2018-05-08T18:52:16.005Z,6.75
2018-05-08T18:54:54.389Z,6.50
2018-05-08T18:57:33.802Z,7.00
2018-05-08T19:00:30.194Z,22.00
2018-05-08T19:03:11.974Z,8.00
2018-05-08T19:05:43.244Z,8.25
2018-05-08T19:08:16.044Z,10.25
2018-05-08T19:10:47.893Z,8.00
2018-05-08T19:13:39.110Z,9.00
2018-05-08T19:16:10.467Z,9.00
2018-05-08T19:19:20.253Z,9.00
2018-05-08T19:22:00.785Z,10.25
2018-05-08T19:24:36.652Z,10.00
2018-05-08T19:27:10.948Z,11.00
2018-05-08T19:30:32.931Z,9.50
2018-05-08T19:33:03.923Z,10.75
2018-05-08T19:37:46.489Z,12.75
2018-05-08T19:40:17.538Z,12.75
2018-05-08T19:42:50.455Z,11.00
2018-05-08T19:45:22.815Z,9.25
2018-05-08T19:50:26.757Z,12.50
2018-05-08T19:52:57.880Z,11.25
2018-05-08T19:55:29.193Z,11.00
2018-05-08T19:58:00.247Z,8.25
2018-05-08T20:00:31.046Z,8.00
2018-05-08T20:03:07.023Z,7.25
2018-05-08T20:05:39.432Z,9.25
2018-05-08T20:08:10.063Z,9.50
2018-05-08T20:10:42.864Z,10.50
2018-05-08T20:13:14.764Z,10.75
2018-05-08T20:15:47.268Z,10.50
2018-05-08T20:18:19.420Z,10.50
2018-05-08T20:20:56.493Z,9.50
2018-05-08T20:23:27.701Z,12.50
2018-05-08T20:25:59.301Z,12.75
2018-05-08T20:28:29.755Z,14.75
2018-05-08T20:31:00.881Z,16.75
2018-05-08T20:33:31.416Z,15.75
2018-05-08T20:36:02.092Z,17.25
2018-05-08T20:38:33.253Z,14.25
2018-05-08T20:41:04.293Z,15.75
2018-05-08T20:43:34.916Z,14.00
2018-05-08T20:46:05.836Z,16.75
2018-05-08T20:48:36.273Z,14.75
2018-05-08T20:51:12.449Z,15.50
2018-05-08T20:56:16.047Z,15.00
2018-05-08T20:58:46.474Z,13.00
2018-05-08T21:01:17.105Z,15.25
2018-05-08T21:03:47.586Z,15.25
2018-05-08T21:06:19.039Z,13.00
2018-05-08T21:08:52.430Z,13.00
2018-05-08T21:11:23.032Z,13.50
2018-05-08T21:13:55.198Z,13.50
2018-05-08T21:16:27.049Z,13.50
2018-05-08T21:18:57.509Z,12.75
2018-05-08T21:21:28.159Z,11.25
2018-05-08T21:24:00.734Z,12.00
2018-05-08T21:26:31.720Z,12.75
2018-05-08T21:31:48.737Z,13.00
2018-05-08T21:34:27.318Z,13.00
2018-05-08T21:36:59.473Z,14.00
2018-05-08T21:39:32.419Z,13.00
2018-05-08T21:42:03.228Z,10.50
2018-05-08T21:44:34.046Z,14.75
2018-05-08T21:47:04.623Z,11.00
2018-05-08T21:49:35.155Z,12.00
2018-05-08T21:52:05.606Z,12.25
2018-05-08T21:54:36.405Z,11.50
2018-05-08T21:57:08.795Z,13.50
2018-05-08T21:59:42.022Z,12.00
2018-05-08T22:02:15.810Z,13.25
2018-05-08T22:04:46.273Z,13.25
2018-05-08T22:07:16.973Z,12.25
2018-05-08T22:09:47.405Z,13.50
2018-05-08T22:12:21.750Z,12.25
2018-05-08T22:14:52.493Z,12.25
2018-05-08T22:17:24.278Z,11.25
2018-05-08T22:19:55.847Z,11.00
2018-05-08T22:22:27.317Z,10.75
2018-05-08T22:24:58.161Z,11.00
2018-05-08T22:27:29.109Z,10.00
2018-05-08T22:29:59.443Z,9.50
2018-05-08T22:32:30.110Z,11.00
2018-05-08T22:35:00.641Z,9.50
2018-05-08T22:37:32.387Z,10.00
2018-05-08T22:40:02.989Z,10.75
2018-05-08T22:42:34.891Z,10.00
2018-05-08T22:45:07.708Z,9.75
2018-05-08T22:47:38.446Z,11.25
2018-05-08T22:50:08.880Z,9.75
2018-05-08T22:52:39.415Z,10.50
2018-05-08T22:55:09.911Z,12.25
2018-05-08T22:57:40.557Z,10.00
2018-05-08T23:00:11.264Z,11.00
2018-05-08T23:02:43.698Z,12.00
2018-05-08T23:05:14.249Z,12.00
2018-05-08T23:07:44.569Z,11.25
2018-05-08T23:10:16.516Z,10.25
2018-05-08T23:12:48.663Z,11.75
2018-05-08T23:15:19.729Z,11.00
2018-05-08T23:17:50.107Z,10.25
2018-05-08T23:20:21.813Z,10.00
2018-05-08T23:22:52.933Z,10.50
2018-05-08T23:25:23.835Z,11.75
2018-05-08T23:27:54.866Z,10.00
2018-05-08T23:30:26.984Z,12.00
2018-05-08T23:32:58.775Z,12.25
2018-05-08T23:35:29.940Z,14.00
2018-05-08T23:38:00.930Z,10.00
2018-05-08T23:40:31.385Z,10.25
2018-05-08T23:43:01.996Z,12.25
2018-05-08T23:45:33.273Z,12.25
2018-05-08T23:48:03.655Z,10.50
2018-05-08T23:50:33.928Z,12.00
2018-05-08T23:53:05.008Z,10.00
2018-05-08T23:55:35.944Z,10.75
2018-05-08T23:58:06.430Z,11.75
